createdAt,value
2019-03-08T00:00:24.276Z,0.50
2019-03-08T00:02:50.948Z,0.50
2019-03-08T00:05:17.981Z,0.70
2019-03-08T00:07:44.637Z,0.70
2019-03-08T00:10:12.373Z,0.57
2019-03-08T00:12:39.495Z,0.50
2019-03-08T00:15:09.333Z,0.50
2019-03-08T00:17:36.003Z,0.60
2019-03-08T00:20:06.252Z,0.63
2019-03-08T00:22:33.041Z,0.70
2019-03-08T00:25:00.770Z,0.50
2019-03-08T00:27:27.564Z,0.60
2019-03-08T00:29:54.300Z,1.63
2019-03-08T00:32:20.977Z,0.40
2019-03-08T00:34:47.612Z,0.60
2019-03-08T00:37:14.644Z,0.50
2019-03-08T00:39:42.643Z,0.60
2019-03-08T00:42:09.365Z,0.70
2019-03-08T00:44:36.028Z,0.60
2019-03-08T00:47:03.272Z,0.60
2019-03-08T00:49:29.972Z,0.83
2019-03-08T00:51:56.637Z,0.50
2019-03-08T00:54:23.318Z,0.60
2019-03-08T00:56:50.002Z,1.07
2019-03-08T00:59:16.737Z,0.60
2019-03-08T01:01:43.474Z,0.40
2019-03-08T01:04:10.246Z,0.50
2019-03-08T01:06:36.906Z,0.40
2019-03-08T01:09:05.968Z,0.80
2019-03-08T01:11:32.953Z,0.50
2019-03-08T01:13:59.716Z,0.50
2019-03-08T01:16:26.376Z,0.70
2019-03-08T01:18:53.053Z,0.60
2019-03-08T01:21:19.796Z,0.60
2019-03-08T01:23:47.546Z,0.50
2019-03-08T01:26:14.194Z,0.50
2019-03-08T01:28:40.887Z,0.70
2019-03-08T01:31:07.630Z,0.40
2019-03-08T01:33:34.359Z,0.50
2019-03-08T01:36:01.045Z,0.57
2019-03-08T01:38:27.691Z,0.70
2019-03-08T01:40:54.524Z,0.40
2019-03-08T01:43:21.220Z,0.50
2019-03-08T01:45:48.313Z,0.53
2019-03-08T01:48:15.167Z,0.50
2019-03-08T01:50:41.840Z,0.70
2019-03-08T01:53:08.612Z,0.70
2019-03-08T01:55:35.472Z,0.60
2019-03-08T01:58:02.134Z,0.53
2019-03-08T02:00:28.911Z,0.50
2019-03-08T02:02:55.849Z,0.40
2019-03-08T02:05:22.475Z,0.50
2019-03-08T02:07:49.377Z,0.40
2019-03-08T02:10:16.245Z,0.77
2019-03-08T02:12:43.265Z,0.50
2019-03-08T02:15:17.829Z,0.50
2019-03-08T02:17:44.630Z,0.50
2019-03-08T02:20:14.460Z,0.77
2019-03-08T02:22:41.332Z,0.40
2019-03-08T02:25:08.726Z,0.60
2019-03-08T02:27:35.456Z,0.40
2019-03-08T02:30:03.078Z,0.57
2019-03-08T02:32:29.703Z,0.87
2019-03-08T02:34:57.286Z,0.40
2019-03-08T02:37:23.943Z,0.70
2019-03-08T02:39:51.173Z,0.47
2019-03-08T02:42:17.821Z,0.50
2019-03-08T02:44:44.512Z,0.50
2019-03-08T02:47:11.150Z,0.43
2019-03-08T02:49:37.922Z,1.07
2019-03-08T02:52:04.954Z,0.40
2019-03-08T02:54:31.620Z,0.50
2019-03-08T02:56:58.249Z,0.47
2019-03-08T02:59:24.889Z,0.60
2019-03-08T03:01:51.661Z,0.60
2019-03-08T03:04:18.339Z,0.63
2019-03-08T03:06:44.980Z,0.50
2019-03-08T03:09:11.802Z,0.47
2019-03-08T03:11:38.581Z,0.40
2019-03-08T03:14:05.245Z,0.30
2019-03-08T03:16:31.965Z,0.60
2019-03-08T03:18:58.619Z,0.60
2019-03-08T03:21:25.283Z,0.67
2019-03-08T03:23:51.922Z,0.40
2019-03-08T03:26:18.955Z,0.70
2019-03-08T03:28:45.641Z,0.73
2019-03-08T03:31:12.265Z,0.60
2019-03-08T03:33:39.024Z,0.50
2019-03-08T03:36:05.662Z,0.50
2019-03-08T03:38:32.316Z,0.50
2019-03-08T03:40:58.938Z,0.57
2019-03-08T03:43:25.641Z,0.67
2019-03-08T03:45:52.288Z,0.50
2019-03-08T03:48:19.058Z,0.70
2019-03-08T03:50:45.694Z,0.50
2019-03-08T03:53:13.350Z,0.60
2019-03-08T03:55:40.096Z,0.40
2019-03-08T03:58:06.749Z,0.80
2019-03-08T04:00:33.410Z,0.60
2019-03-08T04:03:00.053Z,0.47
2019-03-08T04:05:26.884Z,0.50
2019-03-08T04:07:53.507Z,0.60
2019-03-08T04:10:20.528Z,0.50
2019-03-08T04:12:47.126Z,0.60
2019-03-08T04:15:15.080Z,0.60
2019-03-08T04:17:42.397Z,0.57
2019-03-08T04:20:13.912Z,0.50
2019-03-08T04:22:40.584Z,0.40
2019-03-08T04:25:08.253Z,0.47
2019-03-08T04:27:35.002Z,0.60
2019-03-08T04:30:02.014Z,1.00
2019-03-08T04:32:28.709Z,0.67
2019-03-08T04:34:55.646Z,0.30
2019-03-08T04:37:22.325Z,0.60
2019-03-08T04:39:48.971Z,0.50
2019-03-08T04:42:15.639Z,0.60
2019-03-08T04:44:42.370Z,0.60
2019-03-08T04:47:09.025Z,0.60
2019-03-08T04:49:35.688Z,0.60
2019-03-08T04:52:02.661Z,0.40
2019-03-08T04:54:29.419Z,0.63
2019-03-08T04:56:56.189Z,0.50
2019-03-08T04:59:24.068Z,0.50
2019-03-08T05:01:50.772Z,0.53
2019-03-08T05:04:17.490Z,0.40
2019-03-08T05:06:44.224Z,0.77
2019-03-08T05:09:11.268Z,0.43
2019-03-08T05:11:39.151Z,0.40
2019-03-08T05:14:05.788Z,0.40
2019-03-08T05:16:32.445Z,0.50
2019-03-08T05:18:59.229Z,0.70
2019-03-08T05:21:26.055Z,0.50
2019-03-08T05:23:52.680Z,0.40
2019-03-08T05:26:19.665Z,0.43
2019-03-08T05:28:46.447Z,0.70
2019-03-08T05:31:13.161Z,0.50
2019-03-08T05:33:39.907Z,0.60
2019-03-08T05:36:06.569Z,0.53
2019-03-08T05:38:33.258Z,0.50
2019-03-08T05:40:59.967Z,0.40
2019-03-08T05:43:26.708Z,0.60
2019-03-08T05:45:53.375Z,0.40
2019-03-08T05:48:20.020Z,0.50
2019-03-08T05:50:46.700Z,0.50
2019-03-08T05:53:13.332Z,0.70
2019-03-08T05:55:40.002Z,0.47
2019-03-08T05:58:06.832Z,0.50
2019-03-08T06:00:34.893Z,0.40
2019-03-08T06:03:02.346Z,0.40
2019-03-08T06:05:28.968Z,0.60
2019-03-08T06:07:55.656Z,0.43
2019-03-08T06:10:32.753Z,0.40
2019-03-08T06:13:00.708Z,0.50
2019-03-08T06:15:27.633Z,0.50
2019-03-08T06:17:56.356Z,0.60
2019-03-08T06:20:23.085Z,0.50
2019-03-08T06:22:49.795Z,0.40
2019-03-08T06:25:16.465Z,0.40
2019-03-08T06:27:43.125Z,0.30
2019-03-08T06:30:11.407Z,0.50
2019-03-08T06:32:38.053Z,0.40
2019-03-08T06:35:05.960Z,0.67
2019-03-08T06:37:32.577Z,0.40
2019-03-08T06:39:59.491Z,0.60
2019-03-08T06:42:26.320Z,0.50
2019-03-08T06:44:52.986Z,0.53
2019-03-08T06:47:19.633Z,0.80
2019-03-08T06:49:46.294Z,0.50
2019-03-08T06:52:12.944Z,0.50
2019-03-08T06:54:39.914Z,0.50
2019-03-08T06:57:06.596Z,0.53
2019-03-08T06:59:35.180Z,0.40
2019-03-08T07:02:01.933Z,0.90
2019-03-08T07:04:28.568Z,0.57
2019-03-08T07:06:55.236Z,0.60
2019-03-08T07:09:21.981Z,0.50
2019-03-08T07:11:48.946Z,0.50
2019-03-08T07:14:15.717Z,0.50
2019-03-08T07:16:42.356Z,0.40
2019-03-08T07:19:09.103Z,0.50
2019-03-08T07:21:40.408Z,0.50
2019-03-08T07:24:10.036Z,0.50
2019-03-08T07:26:55.616Z,0.40
2019-03-08T07:29:40.925Z,0.40
2019-03-08T07:32:12.278Z,0.40
2019-03-08T07:34:43.530Z,0.50
2019-03-08T07:37:12.387Z,0.47
2019-03-08T07:39:52.806Z,0.37
2019-03-08T07:42:23.970Z,0.40
2019-03-08T07:44:55.401Z,0.60
2019-03-08T07:47:23.979Z,0.40
2019-03-08T07:50:10.755Z,0.50
2019-03-08T07:52:42.324Z,0.40
2019-03-08T07:55:26.277Z,0.83
2019-03-08T07:57:57.920Z,0.70
2019-03-08T08:00:29.356Z,0.50
2019-03-08T08:03:13.027Z,0.40
2019-03-08T08:05:41.735Z,0.40
2019-03-08T08:08:10.448Z,0.40
2019-03-08T08:10:41.657Z,0.60
2019-03-08T08:13:15.889Z,0.77
2019-03-08T08:15:47.254Z,0.60
2019-03-08T08:18:24.675Z,0.50
2019-03-08T08:21:01.114Z,0.50
2019-03-08T08:23:34.574Z,0.50
2019-03-08T08:26:02.525Z,0.60
2019-03-08T08:28:34.240Z,0.80
2019-03-08T08:31:02.802Z,0.70
2019-03-08T08:33:47.068Z,0.80
2019-03-08T08:36:24.752Z,1.10
2019-03-08T08:39:11.406Z,0.77
2019-03-08T08:41:39.976Z,0.93
2019-03-08T08:44:26.541Z,0.70
2019-03-08T08:46:55.141Z,0.90
2019-03-08T08:49:38.857Z,1.17
2019-03-08T08:52:07.389Z,1.00
2019-03-08T08:54:35.931Z,1.00
2019-03-08T08:57:13.089Z,1.37
2019-03-08T08:59:41.747Z,1.20
2019-03-08T09:02:10.297Z,1.30
2019-03-08T09:04:38.981Z,1.10
2019-03-08T09:07:16.952Z,1.20
2019-03-08T09:09:51.461Z,1.13
2019-03-08T09:12:20.032Z,1.20
2019-03-08T09:14:51.122Z,0.87
2019-03-08T09:17:28.580Z,1.40
2019-03-08T09:20:08.979Z,1.13
2019-03-08T09:22:39.453Z,1.53
2019-03-08T09:25:17.533Z,1.30
2019-03-08T09:27:46.101Z,1.53
2019-03-08T09:30:32.410Z,2.00
2019-03-08T09:33:03.849Z,1.47
2019-03-08T09:35:32.567Z,1.17
2019-03-08T09:38:01.153Z,1.50
2019-03-08T09:40:32.633Z,1.00
2019-03-08T09:43:01.276Z,1.30
2019-03-08T09:45:29.817Z,1.40
2019-03-08T09:48:00.908Z,1.80
2019-03-08T09:50:31.969Z,1.23
2019-03-08T09:53:00.725Z,1.40
2019-03-08T09:55:41.900Z,1.90
2019-03-08T09:58:10.449Z,1.83
2019-03-08T10:00:48.234Z,1.83
2019-03-08T10:03:34.853Z,2.00
2019-03-08T10:06:20.309Z,1.83
2019-03-08T10:08:48.905Z,1.93
2019-03-08T10:11:23.358Z,2.70
2019-03-08T10:14:07.316Z,2.43
2019-03-08T10:16:35.919Z,2.70
2019-03-08T10:19:22.688Z,2.00
2019-03-08T10:21:57.257Z,2.70
2019-03-08T10:24:28.600Z,3.00
2019-03-08T10:26:57.141Z,2.87
2019-03-08T10:29:25.684Z,6.50
2019-03-08T10:31:54.349Z,9.80
2019-03-08T10:34:29.060Z,3.77
2019-03-08T10:37:03.417Z,3.83
2019-03-08T10:39:38.269Z,4.10
2019-03-08T10:42:19.147Z,4.10
2019-03-08T10:45:02.875Z,3.17
2019-03-08T10:47:31.461Z,3.77
2019-03-08T10:50:07.147Z,3.63
2019-03-08T10:52:35.745Z,3.33
2019-03-08T10:55:05.899Z,3.63
2019-03-08T10:57:43.404Z,3.53
2019-03-08T11:00:14.306Z,4.10
2019-03-08T11:02:43.021Z,4.13
2019-03-08T11:05:23.508Z,4.10
2019-03-08T11:07:54.989Z,3.37
2019-03-08T11:10:32.158Z,3.23
2019-03-08T11:13:06.256Z,2.87
2019-03-08T11:15:43.633Z,2.97
2019-03-08T11:18:14.960Z,3.03
2019-03-08T11:20:46.530Z,3.10
2019-03-08T11:23:18.323Z,3.07
2019-03-08T11:26:03.497Z,3.17
2019-03-08T11:28:38.188Z,3.13
2019-03-08T11:31:11.727Z,2.70
2019-03-08T11:33:40.091Z,3.70
2019-03-08T11:36:20.273Z,3.53
2019-03-08T11:38:51.620Z,3.20
2019-03-08T11:41:32.555Z,3.17
2019-03-08T11:44:01.160Z,3.20
2019-03-08T11:46:29.727Z,3.60
2019-03-08T11:48:58.268Z,3.23
2019-03-08T11:51:26.841Z,3.90
2019-03-08T11:54:07.404Z,3.07
2019-03-08T11:56:38.738Z,3.97
2019-03-08T11:59:22.557Z,3.23
2019-03-08T12:02:00.253Z,3.60
2019-03-08T12:04:28.785Z,3.33
2019-03-08T12:07:03.035Z,3.70
2019-03-08T12:09:47.956Z,3.73
2019-03-08T12:12:20.010Z,2.90
2019-03-08T12:14:51.364Z,2.97
2019-03-08T12:17:25.995Z,3.07
2019-03-08T12:19:54.585Z,3.20
2019-03-08T12:22:25.941Z,2.70
2019-03-08T12:25:03.823Z,2.83
2019-03-08T12:27:32.369Z,2.43
2019-03-08T12:30:06.747Z,3.10
2019-03-08T12:32:50.468Z,2.40
2019-03-08T12:35:21.836Z,2.90
2019-03-08T12:37:50.409Z,2.40
2019-03-08T12:40:19.023Z,3.30
2019-03-08T12:42:56.493Z,2.93
2019-03-08T12:45:25.432Z,4.03
2019-03-08T12:47:56.737Z,1.80
2019-03-08T12:50:28.136Z,2.70
2019-03-08T12:53:11.808Z,2.77
2019-03-08T12:55:43.212Z,3.60
2019-03-08T12:58:14.272Z,3.43
2019-03-08T13:00:48.823Z,3.70
2019-03-08T13:03:32.724Z,3.33
2019-03-08T13:06:10.185Z,3.30
2019-03-08T13:08:56.608Z,2.90
2019-03-08T13:11:23.375Z,2.77
2019-03-08T13:13:51.826Z,2.57
2019-03-08T13:16:18.445Z,2.80
2019-03-08T13:18:45.136Z,3.10
2019-03-08T13:21:11.761Z,2.50
2019-03-08T13:23:38.453Z,2.70
2019-03-08T13:26:05.102Z,2.60
2019-03-08T13:28:31.761Z,3.30
2019-03-08T13:30:58.736Z,2.70
2019-03-08T13:33:25.441Z,2.87
2019-03-08T13:35:52.085Z,2.90
2019-03-08T13:38:18.804Z,3.40
2019-03-08T13:40:45.506Z,4.70
2019-03-08T13:43:12.160Z,4.17
2019-03-08T13:45:38.972Z,3.77
2019-03-08T13:48:05.751Z,4.13
2019-03-08T13:50:32.631Z,4.00
2019-03-08T13:53:00.914Z,4.27
2019-03-08T13:55:27.631Z,3.90
2019-03-08T13:57:54.382Z,4.33
2019-03-08T14:00:21.158Z,5.23
2019-03-08T14:02:47.901Z,4.60
2019-03-08T14:05:14.989Z,4.93
2019-03-08T14:07:41.609Z,4.40
2019-03-08T14:10:21.093Z,4.90
2019-03-08T14:12:47.818Z,4.50
2019-03-08T14:15:16.854Z,4.30
2019-03-08T14:17:43.638Z,4.60
2019-03-08T14:20:21.336Z,5.50
2019-03-08T14:22:47.997Z,5.20
2019-03-08T14:25:14.654Z,4.53
2019-03-08T14:27:41.378Z,4.37
2019-03-08T14:30:13.964Z,5.20
2019-03-08T14:32:40.933Z,3.90
2019-03-08T14:35:07.660Z,5.30
2019-03-08T14:37:34.393Z,8.10
2019-03-08T14:40:03.021Z,6.17
2019-03-08T14:42:31.637Z,7.07
2019-03-08T14:45:07.712Z,5.63
2019-03-08T14:47:36.563Z,4.10
2019-03-08T14:50:05.813Z,3.47
2019-03-08T14:52:32.488Z,2.70
2019-03-08T14:55:00.101Z,3.43
2019-03-08T14:57:27.539Z,3.50
2019-03-08T14:59:54.372Z,3.57
2019-03-08T15:02:21.972Z,3.10
2019-03-08T15:04:48.603Z,3.37
2019-03-08T15:07:15.237Z,2.87
2019-03-08T15:09:41.897Z,2.30
2019-03-08T15:12:16.357Z,2.20
2019-03-08T15:14:37.008Z,2.20
2019-03-08T15:17:09.150Z,2.47
2019-03-08T15:19:36.130Z,2.27
2019-03-08T15:22:01.518Z,1.90
2019-03-08T15:24:28.196Z,1.90
2019-03-08T15:26:54.815Z,1.60
2019-03-08T15:29:21.603Z,2.70
2019-03-08T15:31:48.700Z,1.80
2019-03-08T15:34:21.318Z,2.07
2019-03-08T15:36:43.846Z,2.30
2019-03-08T15:39:11.600Z,1.77
2019-03-08T15:41:38.235Z,1.77
2019-03-08T15:44:04.965Z,2.20
2019-03-08T15:46:31.585Z,1.90
2019-03-08T15:48:58.220Z,2.23
2019-03-08T15:51:25.601Z,1.80
2019-03-08T15:53:54.377Z,2.00
2019-03-08T15:56:21.355Z,1.80
2019-03-08T15:58:48.097Z,1.60
2019-03-08T16:01:14.764Z,1.80
2019-03-08T16:03:41.578Z,1.87
2019-03-08T16:06:08.283Z,1.77
2019-03-08T16:08:35.732Z,2.23
2019-03-08T16:11:03.421Z,1.67
2019-03-08T16:13:30.169Z,1.70
2019-03-08T16:15:56.805Z,1.90
2019-03-08T16:18:23.576Z,2.10
2019-03-08T16:20:50.220Z,1.90
2019-03-08T16:23:16.890Z,1.13
2019-03-08T16:25:47.676Z,1.57
2019-03-08T16:28:12.008Z,1.63
2019-03-08T16:30:47.456Z,1.50
2019-03-08T16:33:18.317Z,1.80
2019-03-08T16:35:59.932Z,1.40
2019-03-08T16:38:28.399Z,1.67
2019-03-08T16:41:02.891Z,1.37
2019-03-08T16:43:31.482Z,2.00
2019-03-08T16:46:00.047Z,1.63
2019-03-08T16:48:28.473Z,1.50
2019-03-08T16:51:13.753Z,1.60
2019-03-08T16:53:51.289Z,1.60
2019-03-08T16:56:22.845Z,1.60
2019-03-08T16:58:51.430Z,2.10
2019-03-08T17:01:22.923Z,2.10
2019-03-08T17:03:57.461Z,1.80
2019-03-08T17:06:32.041Z,2.23
2019-03-08T17:09:00.616Z,2.33
2019-03-08T17:11:29.378Z,2.97
2019-03-08T17:13:57.942Z,2.67
2019-03-08T17:16:26.500Z,2.53
2019-03-08T17:19:12.287Z,2.77
2019-03-08T17:21:46.917Z,2.50
2019-03-08T17:24:15.473Z,2.10
2019-03-08T17:26:44.064Z,3.17
2019-03-08T17:29:15.582Z,8.10
2019-03-08T17:31:50.137Z,2.43
2019-03-08T17:34:28.041Z,1.93
2019-03-08T17:36:56.649Z,2.67
2019-03-08T17:39:33.994Z,2.70
2019-03-08T17:42:17.768Z,2.67
2019-03-08T17:44:46.316Z,2.70
2019-03-08T17:47:20.435Z,2.63
2019-03-08T17:49:57.838Z,1.97
2019-03-08T17:52:26.436Z,2.37
2019-03-08T17:54:54.984Z,3.23
2019-03-08T17:57:23.518Z,2.40
2019-03-08T17:59:58.085Z,2.00
2019-03-08T18:02:32.215Z,2.40
2019-03-08T18:05:12.885Z,2.30
2019-03-08T18:07:41.418Z,2.30
2019-03-08T18:10:18.584Z,1.97
2019-03-08T18:15:00.717Z,2.30
2019-03-08T18:17:29.267Z,2.30
2019-03-08T18:19:57.852Z,1.87
2019-03-08T18:22:29.459Z,2.20
2019-03-08T18:25:00.553Z,2.07
2019-03-08T18:27:32.306Z,2.17
2019-03-08T18:30:06.838Z,2.27
2019-03-08T18:32:35.509Z,2.67
2019-03-08T18:35:11.040Z,2.30
2019-03-08T18:37:56.364Z,2.70
2019-03-08T18:40:33.966Z,1.90
2019-03-08T18:43:11.492Z,1.83
2019-03-08T18:45:56.784Z,2.40
2019-03-08T18:48:25.653Z,3.17
2019-03-08T18:50:54.216Z,2.10
2019-03-08T18:53:23.836Z,2.60
2019-03-08T18:55:52.384Z,2.03
2019-03-08T18:58:20.928Z,2.60
2019-03-08T19:01:01.360Z,2.33
2019-03-08T19:03:35.921Z,1.67
2019-03-08T19:06:04.453Z,2.57
2019-03-08T19:08:41.892Z,2.33
2019-03-08T19:11:16.380Z,2.50
2019-03-08T19:14:16.990Z,2.17
2019-03-08T19:17:03.710Z,1.80
2019-03-08T19:19:32.698Z,2.00
2019-03-08T19:22:07.053Z,2.10
2019-03-08T19:24:44.717Z,1.67
2019-03-08T19:27:15.802Z,1.60
2019-03-08T19:29:56.371Z,1.80
2019-03-08T19:32:30.765Z,1.77
2019-03-08T19:35:01.920Z,1.87
2019-03-08T19:37:33.392Z,1.50
2019-03-08T19:40:07.721Z,1.60
2019-03-08T19:42:39.068Z,1.70
2019-03-08T19:45:28.260Z,1.30
2019-03-08T19:47:56.827Z,1.30
2019-03-08T19:50:37.361Z,1.30
2019-03-08T19:53:11.737Z,1.50
2019-03-08T19:55:40.292Z,1.30
2019-03-08T19:58:17.447Z,1.50
2019-03-08T20:00:48.782Z,1.63
2019-03-08T20:03:17.430Z,1.80
2019-03-08T20:05:46.086Z,1.00
2019-03-08T20:08:21.059Z,1.60
2019-03-08T20:10:52.766Z,2.10
2019-03-08T20:13:24.138Z,2.03
2019-03-08T20:16:09.449Z,1.90
2019-03-08T20:18:38.102Z,2.83
2019-03-08T20:21:09.715Z,2.20
2019-03-08T20:23:38.292Z,2.23
2019-03-08T20:26:06.844Z,2.40
2019-03-08T20:28:44.440Z,1.83
2019-03-08T20:31:29.791Z,1.97
2019-03-08T20:33:58.341Z,2.27
2019-03-08T20:36:27.377Z,2.37
2019-03-08T20:38:56.013Z,2.47
2019-03-08T20:41:24.582Z,2.50
2019-03-08T20:43:59.008Z,2.73
2019-03-08T20:46:30.063Z,2.90
2019-03-08T20:48:56.844Z,2.10
2019-03-08T20:51:23.739Z,2.77
2019-03-08T20:53:50.394Z,2.50
2019-03-08T20:56:17.176Z,2.33
2019-03-08T20:58:43.861Z,2.13
2019-03-08T21:01:10.521Z,1.80
2019-03-08T21:03:37.516Z,1.40
2019-03-08T21:06:04.151Z,1.50
2019-03-08T21:08:30.826Z,1.83
2019-03-08T21:10:57.613Z,2.17
2019-03-08T21:13:24.390Z,1.70
2019-03-08T21:15:51.058Z,1.70
2019-03-08T21:18:19.107Z,1.63
2019-03-08T21:20:45.837Z,1.80
2019-03-08T21:23:12.489Z,2.33
2019-03-08T21:25:39.327Z,1.60
2019-03-08T21:28:05.953Z,1.60
2019-03-08T21:30:32.645Z,1.80
2019-03-08T21:32:59.296Z,1.30
2019-03-08T21:35:26.386Z,1.60
2019-03-08T21:37:53.071Z,1.30
2019-03-08T21:40:20.437Z,1.67
2019-03-08T21:42:47.140Z,1.73
2019-03-08T21:45:14.832Z,1.93
2019-03-08T21:47:41.541Z,1.87
2019-03-08T21:50:12.950Z,1.63
2019-03-08T21:52:39.629Z,1.63
2019-03-08T21:55:06.700Z,1.90
2019-03-08T21:57:33.435Z,2.00
2019-03-08T22:00:00.291Z,2.10
2019-03-08T22:02:27.388Z,1.67
2019-03-08T22:04:55.096Z,1.70
2019-03-08T22:07:21.777Z,1.90
2019-03-08T22:09:53.573Z,1.50
2019-03-08T22:12:20.400Z,1.77
2019-03-08T22:14:47.049Z,1.77
2019-03-08T22:17:13.890Z,1.60
2019-03-08T22:19:40.848Z,1.80
2019-03-08T22:22:07.629Z,1.47
2019-03-08T22:24:34.683Z,1.87
2019-03-08T22:27:01.329Z,1.33
2019-03-08T22:29:28.972Z,1.63
2019-03-08T22:31:55.569Z,1.90
2019-03-08T22:34:22.252Z,1.90
2019-03-08T22:36:48.936Z,1.60
2019-03-08T22:39:15.573Z,1.73
2019-03-08T22:41:42.391Z,1.50
2019-03-08T22:44:09.054Z,1.90
2019-03-08T22:46:44.785Z,1.40
2019-03-08T22:49:04.167Z,1.80
2019-03-08T22:51:30.891Z,1.90
2019-03-08T22:53:57.482Z,1.90
2019-03-08T22:56:24.267Z,1.77
2019-03-08T22:58:50.944Z,1.50
2019-03-08T23:01:19.846Z,2.10
2019-03-08T23:03:46.499Z,1.63
2019-03-08T23:06:13.479Z,1.20
2019-03-08T23:08:40.128Z,2.20
2019-03-08T23:11:06.784Z,2.30
2019-03-08T23:13:33.433Z,2.13
2019-03-08T23:16:00.134Z,2.07
2019-03-08T23:18:26.922Z,1.63
2019-03-08T23:20:53.917Z,2.23
2019-03-08T23:23:20.667Z,1.80
2019-03-08T23:25:47.355Z,2.33
2019-03-08T23:28:24.992Z,2.00
2019-03-08T23:30:53.502Z,2.37
2019-03-08T23:33:20.376Z,2.60
2019-03-08T23:35:47.105Z,2.80
2019-03-08T23:38:13.828Z,2.70
2019-03-08T23:40:40.512Z,3.23
2019-03-08T23:43:07.157Z,2.70
2019-03-08T23:45:33.868Z,3.00
2019-03-08T23:48:00.517Z,2.50
2019-03-08T23:50:27.166Z,2.63
2019-03-08T23:52:53.854Z,3.07
2019-03-08T23:55:20.505Z,3.10
2019-03-08T23:57:47.209Z,2.90
